.
WxDataArchive / Data Records for 2009-02-18
2009-02-17 February 2009 2009-02-19

Data Records for Wednesday, 18 February 2009

Time	Temp	Chill	HIndex	Humid	Dewpt	 Wind 	HiWind	WindDir	Rain 	Barom 
-----	----	-----	------	-----	-----	------	------	-------	-----	----- 
00:00	38.9	38.9	38.9	56	24.6	1	3	90	0.00	29.716 
00:05	38.9	38.9	38.9	57	25.0	1	3	135	0.00	29.713 
00:10	38.9	38.9	38.9	57	25.0	2	3	90	0.00	29.712 
00:15	39.1	39.1	39.1	58	25.6	1	4	90	0.00	29.712 
00:20	39.2	39.2	39.2	59	26.1	1	4	292	0.00	29.713 
00:25	39.3	39.3	39.3	60	26.6	2	9	270	0.00	29.711 
00:30	39.6	39.6	39.6	62	27.7	2	4	270	0.00	29.706 
00:35	39.8	39.8	39.8	65	29.0	2	6	225	0.00	29.699 
00:40	39.8	39.8	39.8	65	29.0	2	7	270	0.00	29.697 
00:45	39.9	39.9	39.9	65	29.1	1	6	68	0.00	29.695 
00:50	40.2	40.2	40.2	65	29.4	2	7	270	0.00	29.694 
00:55	40.3	40.3	40.3	65	29.5	2	5	248	0.00	29.691 
01:00	40.5	40.5	40.5	64	29.3	1	5	270	0.00	29.683 
01:05	40.5	40.5	40.5	66	30.0	1	3	135	0.00	29.678 
01:10	40.3	40.3	40.3	66	29.9	0	2	90	0.00	29.675 
01:15	40.2	40.2	40.2	66	29.8	0	2	90	0.00	29.664 
01:20	40.1	40.1	40.1	66	29.7	1	2	90	0.00	29.662 
01:25	40.2	40.2	40.2	65	29.4	2	5	90	0.00	29.659 
01:30	40.2	40.2	40.2	65	29.4	1	3	90	0.00	29.651 
01:35	40.2	40.2	40.2	64	29.0	2	4	90	0.00	29.646 
01:40	40.3	40.3	40.3	64	29.1	1	3	90	0.00	29.644 
01:45	40.3	40.3	40.3	64	29.1	2	6	112	0.00	29.636 
01:50	40.3	40.3	40.3	64	29.1	2	5	135	0.00	29.631 
01:55	40.3	40.3	40.3	64	29.1	2	4	112	0.00	29.628 
02:00	40.3	40.3	40.3	64	29.1	1	4	45	0.00	29.623 
02:05	40.3	40.3	40.3	64	29.1	1	3	45	0.00	29.621 
02:10	40.5	40.5	40.5	63	28.9	1	4	90	0.00	29.617 
02:15	40.5	40.5	40.5	64	29.3	1	5	112	0.00	29.613 
02:20	40.5	40.5	40.5	63	28.9	1	3	135	0.00	29.605 
02:25	40.5	40.5	40.5	63	28.9	1	3	315	0.00	29.600 
02:30	40.6	40.6	40.6	63	29.0	2	5	90	0.00	29.598 
02:35	40.8	40.8	40.8	63	29.2	2	10	292	0.00	29.594 
02:40	40.9	40.9	40.9	62	28.9	2	5	248	0.00	29.587 
02:45	40.9	40.9	40.9	63	29.3	2	7	90	0.00	29.583 
02:50	40.9	40.9	40.9	63	29.3	2	10	248	0.00	29.581 
02:55	41.1	41.1	41.1	63	29.5	3	12	270	0.00	29.577 
03:00	41.1	41.1	41.1	64	29.9	2	9	270	0.00	29.568 
03:05	40.9	40.9	40.9	65	30.1	2	6	248	0.00	29.564 
03:10	40.9	40.9	40.9	66	30.4	2	6	270	0.00	29.562 
03:15	40.8	40.8	40.8	66	30.3	3	7	248	0.00	29.556 
03:20	40.8	40.8	40.8	67	30.7	2	5	248	0.00	29.554 
03:25	40.8	40.8	40.8	67	30.7	2	5	270	0.00	29.552 
03:30	40.6	40.6	40.6	68	30.9	2	9	248	0.00	29.549 
03:35	40.6	40.6	40.6	68	30.9	1	4	292	0.00	29.547 
03:40	40.5	40.5	40.5	69	31.1	1	5	248	0.00	29.544 
03:45	40.5	40.5	40.5	69	31.1	1	4	248	0.00	29.536 
03:50	40.3	40.3	40.3	70	31.3	1	3	292	0.00	29.536 
03:55	40.2	40.2	40.2	72	31.9	1	4	248	0.00	29.535 
04:00	40.1	40.1	40.1	73	32.2	1	3	315	0.00	29.531 
04:05	39.9	39.9	39.9	74	32.3	1	4	90	0.00	29.527 
04:10	39.8	39.8	39.8	75	32.5	1	2	315	0.00	29.524 
04:15	39.8	39.8	39.8	76	32.9	1	4	90	0.00	29.520 
04:20	39.6	39.6	39.6	76	32.7	0	2	315	0.00	29.520 
04:25	39.6	39.6	39.6	76	32.7	1	2	315	0.00	29.522 
04:30	39.6	39.6	39.6	76	32.7	1	3	68	0.00	29.518 
04:35	39.6	39.6	39.6	77	33.0	1	5	68	0.00	29.514 
04:40	39.6	39.6	39.6	79	33.6	1	4	270	0.00	29.517 
04:45	39.5	39.5	39.5	81	34.2	1	4	248	0.00	29.516 
04:50	39.5	39.5	39.5	82	34.5	0	2	225	0.00	29.516 
04:55	39.3	39.3	39.3	83	34.6	1	4	270	0.00	29.519 
05:00	39.2	39.2	39.2	84	34.8	1	3	248	0.00	29.519 
05:05	39.2	39.2	39.2	85	35.1	2	4	270	0.00	29.522 
05:10	39.2	39.2	39.2	86	35.4	1	4	270	0.00	29.522 
05:15	39.3	39.3	39.3	86	35.5	1	5	270	0.00	29.520 
05:20	39.3	39.3	39.3	87	35.8	1	6	270	0.00	29.511 
05:25	39.5	39.5	39.5	87	36.0	1	5	90	0.00	29.505 
05:30	39.5	39.5	39.5	87	36.0	1	3	248	0.00	29.497 
05:35	39.5	39.5	39.5	87	36.0	1	3	248	0.00	29.493 
05:40	39.5	39.5	39.5	88	36.2	1	4	315	0.00	29.495 
05:45	39.5	39.5	39.5	88	36.2	1	4	292	0.00	29.493 
05:50	39.5	39.5	39.5	88	36.2	1	4	90	0.00	29.490 
05:55	39.5	39.5	39.5	88	36.2	1	4	90	0.00	29.489 
06:00	39.6	39.6	39.6	88	36.3	1	4	22	0.00	29.489 
06:05	39.6	39.6	39.6	88	36.3	1	4	112	0.00	29.488 
06:10	39.6	39.6	39.6	88	36.3	1	2	0	0.00	29.489 
06:15	39.6	39.6	39.6	88	36.3	1	3	112	0.00	29.487 
06:20	39.8	39.8	39.8	88	36.5	1	5	270	0.00	29.485 
06:25	39.9	39.9	39.9	88	36.6	1	10	90	0.00	29.483 
06:30	39.9	39.9	39.9	88	36.6	1	4	248	0.00	29.484 
06:35	40.1	40.1	40.1	88	36.8	1	3	270	0.00	29.480 
06:40	40.1	40.1	40.1	88	36.8	1	6	338	0.00	29.478 
06:45	40.1	40.1	40.1	88	36.8	1	6	90	0.00	29.475 
06:50	40.2	40.2	40.2	88	36.9	2	9	248	0.00	29.473 
06:55	40.2	40.2	40.2	88	36.9	1	5	248	0.00	29.473 
07:00	40.3	40.3	40.3	88	37.0	1	4	248	0.00	29.466 
07:05	40.3	40.3	40.3	88	37.0	1	5	112	0.00	29.461 
07:10	40.3	40.3	40.3	89	37.3	1	3	90	0.00	29.455 
07:15	40.3	40.3	40.3	89	37.3	2	4	90	0.00	29.444 
07:20	40.5	40.5	40.5	89	37.5	2	6	90	0.01	29.439 
07:25	40.3	40.3	40.3	89	37.3	2	4	112	0.00	29.430 
07:30	40.3	40.3	40.3	90	37.6	1	3	112	0.00	29.426 
07:35	40.2	40.2	40.2	90	37.5	1	3	112	0.00	29.428 
07:40	40.2	40.2	40.2	91	37.8	1	3	112	0.00	29.429 
07:45	40.3	40.3	40.3	91	37.9	2	5	112	0.00	29.427 
07:50	40.3	40.3	40.3	91	37.9	1	3	0	0.00	29.426 
07:55	40.3	40.3	40.3	91	37.9	1	3	90	0.00	29.425 
08:00	40.3	40.3	40.3	91	37.9	1	4	248	0.00	29.424 
08:05	40.3	40.3	40.3	92	38.2	1	4	68	0.00	29.424 
08:10	40.3	40.3	40.3	92	38.2	0	2	180	0.00	29.419 
08:15	40.5	40.5	40.5	92	38.4	1	2	90	0.00	29.416 
08:20	40.5	40.5	40.5	92	38.4	0	2	68	0.00	29.417 
08:25	40.5	40.5	40.5	92	38.4	1	6	248	0.00	29.417 
08:30	40.5	40.5	40.5	92	38.4	1	3	248	0.01	29.423 
08:35	40.6	40.6	40.6	92	38.5	1	3	248	0.00	29.425 
08:40	40.6	40.6	40.6	92	38.5	1	2	45	0.01	29.410 
08:45	40.6	40.6	40.6	92	38.5	1	3	45	0.02	29.404 
08:50	40.6	40.6	40.6	92	38.5	1	2	45	0.02	29.407 
08:55	40.5	40.5	40.5	92	38.4	0	3	248	0.01	29.397 
09:00	40.6	40.6	40.6	93	38.7	0	4	315	0.01	29.396 
09:05	40.6	40.6	40.6	93	38.7	0	1	315	0.00	29.392 
09:10	40.6	40.6	40.6	93	38.7	0	2	315	0.00	29.385 
09:15	40.6	40.6	40.6	93	38.7	1	4	90	0.00	29.376 
09:20	40.8	40.8	40.8	93	38.9	1	3	112	0.00	29.368 
09:25	41.1	41.1	41.1	94	39.5	1	5	112	0.00	29.363 
09:30	41.3	41.3	41.3	94	39.7	2	5	112	0.00	29.362 
09:35	41.5	41.5	41.5	94	39.9	0	3	270	0.00	29.364 
09:40	41.6	41.6	41.6	94	40.0	1	4	112	0.00	29.365 
09:45	41.6	41.6	41.6	94	40.0	0	3	270	0.00	29.367 
09:50	41.6	41.6	41.6	94	40.0	1	5	90	0.00	29.363 
09:55	41.6	41.6	41.6	94	40.0	0	3	90	0.00	29.358 
10:00	41.6	41.6	41.6	94	40.0	1	3	112	0.00	29.345 
10:05	41.8	41.8	41.8	94	40.2	1	4	90	0.00	29.344 
10:10	41.9	41.9	41.9	94	40.3	1	7	90	0.00	29.345 
10:15	41.9	41.9	41.9	94	40.3	2	4	90	0.00	29.335 
10:20	42.1	42.1	42.1	94	40.5	0	2	112	0.00	29.336 
10:25	42.1	42.1	42.1	94	40.5	0	3	112	0.00	29.337 
10:30	42.2	42.2	42.2	94	40.6	1	5	68	0.00	29.333 
10:35	42.2	42.2	42.2	94	40.6	0	2	270	0.00	29.332 
10:40	42.2	42.2	42.2	94	40.6	2	5	248	0.01	29.342 
10:45	42.2	42.2	42.2	94	40.6	1	3	248	0.04	29.342 
10:50	42.3	42.3	42.3	94	40.7	1	3	248	0.02	29.345 
10:55	42.3	42.3	42.3	94	40.7	1	4	248	0.04	29.363 
11:00	42.3	42.3	42.3	95	41.0	2	5	248	0.03	29.361 
11:05	42.3	42.3	42.3	95	41.0	1	4	248	0.02	29.362 
11:10	42.2	42.2	42.2	95	40.9	0	2	225	0.01	29.346 
11:15	42.2	42.2	42.2	95	40.9	0	1	225	0.01	29.345 
11:20	42.1	42.1	42.1	95	40.8	0	1	225	0.00	29.343 
11:25	42.1	42.1	42.1	95	40.8	0	1	225	0.00	29.330 
11:30	41.9	41.9	41.9	95	40.6	0	2	225	0.00	29.329 
11:35	41.9	41.9	41.9	95	40.6	0	1	225	0.00	29.327 
11:40	42.1	42.1	42.1	95	40.8	0	2	225	0.00	29.324 
11:45	42.2	42.2	42.2	95	40.9	0	1	225	0.00	29.323 
11:50	42.2	42.2	42.2	95	40.9	0	1	225	0.00	29.324 
11:55	42.3	42.3	42.3	95	41.0	0	1	225	0.00	29.320 
12:00	42.3	42.3	42.3	95	41.0	0	1	225	0.00	29.321 
12:05	42.3	42.3	42.3	95	41.0	0	2	225	0.00	29.317 
12:10	42.5	42.5	42.5	95	41.2	0	2	225	0.00	29.314 
12:15	42.6	42.6	42.6	95	41.3	0	1	225	0.00	29.314 
12:20	42.8	42.8	42.8	96	41.7	1	2	225	0.00	29.312 
12:25	43.1	43.1	43.1	96	42.0	0	2	225	0.00	29.308 
12:30	43.5	43.5	43.5	96	42.4	1	3	270	0.00	29.307 
12:35	43.8	43.8	43.8	96	42.7	1	3	248	0.00	29.306 
12:40	44.1	44.1	44.1	96	43.0	2	4	248	0.00	29.305 
12:45	44.1	44.1	44.1	96	43.0	2	5	248	0.00	29.302 
12:50	44.1	42.1	44.1	96	43.0	4	7	248	0.00	29.296 
12:55	44.2	44.2	44.2	96	43.1	2	9	248	0.00	29.295 
13:00	44.2	44.2	44.2	96	43.1	2	5	248	0.00	29.294 
13:05	44.2	44.2	44.2	96	43.1	2	5	248	0.00	29.293 
13:10	44.2	44.2	44.2	96	43.1	3	9	248	0.00	29.294 
13:15	44.1	44.1	44.1	96	43.0	3	7	248	0.01	29.295 
13:20	44.1	44.1	44.1	96	43.0	3	7	270	0.00	29.293 
13:25	44.1	44.1	44.1	95	42.8	2	6	248	0.01	29.294 
13:30	44.1	44.1	44.1	95	42.8	3	11	270	0.00	29.294 
13:35	44.1	44.1	44.1	95	42.8	2	7	248	0.00	29.295 
13:40	43.9	43.9	43.9	95	42.6	3	9	270	0.00	29.295 
13:45	44.1	44.1	44.1	95	42.8	3	7	248	0.00	29.297 
13:50	43.9	43.9	43.9	95	42.6	3	5	270	0.00	29.299 
13:55	43.8	43.8	43.8	95	42.5	3	9	270	0.00	29.304 
14:00	43.5	43.5	43.5	95	42.2	2	8	270	0.00	29.311 
14:05	43.2	43.2	43.2	94	41.6	2	5	315	0.00	29.311 
14:10	42.9	42.9	42.9	94	41.3	2	3	292	0.00	29.314 
14:15	42.5	42.5	42.5	94	40.9	3	6	270	0.00	29.323 
14:20	41.8	41.8	41.8	93	39.9	2	7	292	0.01	29.327 
14:25	41.5	41.5	41.5	93	39.6	2	6	270	0.00	29.328 
14:30	41.2	41.2	41.2	93	39.3	2	5	315	0.00	29.329 
14:35	41.1	41.1	41.1	93	39.2	2	5	315	0.00	29.329 
14:40	41.1	41.1	41.1	92	39.0	2	5	270	0.00	29.333 
14:45	41.1	41.1	41.1	92	39.0	2	5	315	0.00	29.340 
14:50	40.8	40.8	40.8	92	38.7	2	9	315	0.00	29.343 
14:55	40.6	40.6	40.6	92	38.5	2	5	0	0.00	29.344 
15:00	40.8	40.8	40.8	92	38.7	2	4	248	0.00	29.344 
15:05	41.1	41.1	41.1	92	39.0	1	3	338	0.00	29.346 
15:10	41.5	41.5	41.5	92	39.4	2	4	248	0.00	29.350 
15:15	41.8	41.8	41.8	92	39.6	2	5	225	0.00	29.352 
15:20	41.8	41.8	41.8	92	39.6	3	6	270	0.00	29.352 
15:25	41.5	41.5	41.5	90	38.8	3	7	315	0.00	29.357 
15:30	41.5	41.5	41.5	89	38.5	3	7	270	0.00	29.361 
15:35	41.3	38.8	41.3	88	38.0	4	10	270	0.00	29.370 
15:40	41.1	38.6	41.1	87	37.5	4	7	270	0.00	29.377 
15:45	40.9	40.9	40.9	87	37.3	3	6	270	0.00	29.378 
15:50	40.6	38.0	40.6	87	37.0	4	9	270	0.00	29.381 
15:55	40.5	37.9	40.5	87	36.9	4	9	270	0.00	29.388 
16:00	40.2	37.5	40.2	87	36.6	4	7	270	0.00	29.392 
16:05	39.9	39.9	39.9	87	36.4	3	7	292	0.00	29.398 
16:10	39.6	36.9	39.6	87	36.1	4	7	270	0.00	29.407 
16:15	39.3	36.5	39.3	88	36.0	4	11	270	0.00	29.410 
16:20	39.2	36.4	39.2	88	35.9	4	8	270	0.00	29.411 
16:25	39.1	36.3	39.1	88	35.9	4	9	270	0.00	29.416 
16:30	38.8	35.9	38.8	88	35.6	4	8	270	0.00	29.424 
16:35	38.5	35.6	38.5	88	35.3	4	10	270	0.00	29.426 
16:40	38.3	35.4	38.3	88	35.1	4	9	270	0.00	29.433 
16:45	38.0	35.0	38.0	87	34.5	4	13	270	0.00	29.441 
16:50	37.9	34.9	37.9	87	34.4	4	11	270	0.00	29.443 
16:55	37.8	34.8	37.8	87	34.3	4	10	292	0.00	29.446 
17:00	37.5	34.4	37.5	87	34.0	4	10	270	0.00	29.450 
17:05	37.3	33.3	37.3	87	33.8	5	15	270	0.00	29.455 
17:10	37.3	37.3	37.3	87	33.8	3	7	270	0.00	29.459 
17:15	37.2	37.2	37.2	87	33.7	3	9	270	0.00	29.465 
17:20	37.0	32.9	37.0	86	33.2	5	13	270	0.00	29.469 
17:25	36.9	32.8	36.9	85	32.8	5	10	270	0.00	29.474 
17:30	36.8	33.6	36.8	85	32.7	4	11	270	0.00	29.477 
17:35	36.6	36.6	36.6	85	32.5	3	6	248	0.00	29.482 
17:40	36.6	36.6	36.6	85	32.5	3	7	270	0.00	29.485 
17:45	36.5	36.5	36.5	85	32.4	3	9	270	0.00	29.489 
17:50	36.3	33.0	36.3	84	31.9	4	9	292	0.00	29.491 
17:55	36.2	36.2	36.2	84	31.8	3	9	270	0.00	29.494 
18:00	36.2	32.9	36.2	83	31.5	4	11	270	0.00	29.494 
18:05	36.2	36.2	36.2	83	31.5	3	6	315	0.00	29.499 
18:10	36.0	32.7	36.0	82	31.0	4	10	292	0.00	29.505 
18:15	36.0	36.0	36.0	82	31.0	3	7	270	0.00	29.507 
18:20	35.9	35.9	35.9	82	31.0	3	7	270	0.00	29.510 
18:25	35.9	35.9	35.9	81	30.6	3	10	270	0.00	29.510 
18:30	35.8	32.5	35.8	80	30.2	4	10	270	0.00	29.518 
18:35	35.9	35.9	35.9	80	30.3	3	7	270	0.00	29.521 
18:40	35.9	32.6	35.9	81	30.6	4	9	248	0.00	29.523 
18:45	35.9	32.6	35.9	80	30.3	4	9	270	0.00	29.528 
18:50	35.9	35.9	35.9	81	30.6	3	8	270	0.00	29.532 
18:55	35.8	35.8	35.8	81	30.6	2	5	292	0.00	29.537 
19:00	35.8	35.8	35.8	81	30.6	3	6	315	0.00	29.538 
19:05	35.6	35.6	35.6	82	30.7	2	4	292	0.00	29.539 
19:10	35.5	35.5	35.5	82	30.6	2	5	315	0.00	29.539 
19:15	35.5	35.5	35.5	83	30.9	2	6	270	0.00	29.540 
19:20	35.5	35.5	35.5	83	30.9	2	9	248	0.00	29.544 
19:25	35.3	35.3	35.3	83	30.7	2	6	270	0.00	29.548 
19:30	35.2	35.2	35.2	83	30.6	3	5	270	0.00	29.546 
19:35	35.0	35.0	35.0	83	30.4	2	4	338	0.00	29.549 
19:40	34.9	34.9	34.9	84	30.6	2	6	248	0.00	29.548 
19:45	34.9	34.9	34.9	84	30.6	2	6	248	0.00	29.546 
19:50	34.9	34.9	34.9	84	30.6	3	6	270	0.00	29.547 
19:55	34.7	34.7	34.7	83	30.1	2	4	270	0.00	29.543 
20:00	34.6	34.6	34.6	84	30.3	2	4	270	0.00	29.546 
20:05	34.6	34.6	34.6	84	30.3	2	7	270	0.00	29.546 
20:10	34.6	34.6	34.6	84	30.3	2	5	315	0.00	29.554 
20:15	34.6	34.6	34.6	84	30.3	2	5	270	0.00	29.555 
20:20	34.6	34.6	34.6	84	30.3	2	4	270	0.00	29.557 
20:25	34.6	34.6	34.6	84	30.3	3	10	270	0.00	29.561 
20:30	34.6	34.6	34.6	84	30.3	2	6	270	0.00	29.563 
20:35	34.6	34.6	34.6	84	30.3	3	6	270	0.00	29.565 
20:40	34.4	34.4	34.4	84	30.1	3	10	248	0.00	29.569 
20:45	34.4	34.4	34.4	84	30.1	3	6	270	0.00	29.571 
20:50	34.3	34.3	34.3	85	30.3	1	3	270	0.00	29.571 
20:55	34.3	34.3	34.3	85	30.3	2	4	248	0.00	29.571 
21:00	34.3	34.3	34.3	85	30.3	1	4	270	0.00	29.572 
21:05	34.3	34.3	34.3	85	30.3	2	4	270	0.00	29.571 
21:10	34.3	34.3	34.3	85	30.3	2	3	270	0.00	29.573 
21:15	34.1	34.1	34.1	85	30.1	2	5	270	0.00	29.574 
21:20	34.1	34.1	34.1	86	30.4	1	3	248	0.00	29.573 
21:25	34.1	34.1	34.1	86	30.4	1	3	248	0.00	29.577 
21:30	34.0	34.0	34.0	86	30.3	1	4	248	0.00	29.579 
21:35	34.0	34.0	34.0	85	30.0	2	4	270	0.00	29.578 
21:40	34.0	34.0	34.0	85	30.0	1	4	270	0.00	29.580 
21:45	34.0	34.0	34.0	85	30.0	1	3	270	0.00	29.581 
21:50	33.8	33.8	33.8	85	29.8	2	5	248	0.00	29.581 
21:55	33.8	33.8	33.8	85	29.8	2	5	270	0.00	29.583 
22:00	33.7	33.7	33.7	85	29.7	2	6	270	0.00	29.583 
22:05	33.7	33.7	33.7	86	30.0	2	5	270	0.00	29.582 
22:10	33.7	33.7	33.7	86	30.0	1	5	248	0.00	29.583 
22:15	33.5	33.5	33.5	86	29.8	2	6	248	0.00	29.586 
22:20	33.1	33.1	33.1	85	29.1	2	5	315	0.00	29.587 
22:25	32.8	32.8	32.8	85	28.8	1	3	292	0.00	29.588 
22:30	32.7	32.7	32.7	84	28.4	1	3	292	0.00	29.588 
22:35	32.5	32.5	32.5	84	28.2	1	3	292	0.00	29.588 
22:40	32.5	32.5	32.5	84	28.2	1	3	292	0.00	29.589 
22:45	32.5	32.5	32.5	83	27.9	1	3	292	0.00	29.589 
22:50	32.4	32.4	32.4	83	27.8	2	6	315	0.00	29.589 
22:55	32.2	32.2	32.2	82	27.3	1	4	338	0.00	29.589 
23:00	32.1	32.1	32.1	82	27.2	1	5	338	0.00	29.591 
23:05	32.1	32.1	32.1	83	27.5	1	3	292	0.00	29.594 
23:10	31.9	31.9	31.9	83	27.3	1	2	292	0.00	29.593 
23:15	31.8	31.8	31.8	84	27.5	0	2	292	0.00	29.594 
23:20	31.6	31.6	31.6	84	27.3	1	3	292	0.00	29.596 
23:25	31.6	31.6	31.6	85	27.6	1	4	0	0.00	29.599 
23:30	31.3	31.3	31.3	84	27.0	1	3	292	0.00	29.603 
23:35	31.2	31.2	31.2	84	26.9	2	7	338	0.00	29.600 
23:40	31.0	31.0	31.0	83	26.5	1	4	338	0.00	29.598 
23:45	30.9	30.9	30.9	82	26.1	2	7	315	0.00	29.604 
23:50	30.9	30.9	30.9	82	26.1	2	8	292	0.00	29.605 
23:55	30.4	26.2	30.4	80	25.0	4	11	292	0.00	29.606 

CoCoRaHS
IN-AL-39
A2 Web Hosting
Creative Commons License
GoDaddy
search engine by freefind advanced

loaded 2018-11-13 17:18:48 • last modified 2010-11-18 10:43:29
Privacy PolicyDisclaimer
• wx.awcolley.com is powered by PmWiki v.2002016 •
• all content (unless otherwise noted) © 2018 A W Colley